sensor_id;sensor_type;location;lat;lon;timestamp;pressure;altitude;pressure_sealevel;temperature;humidity
50650;BME280;36621;60.058;30.346;2023-09-19T00:02:24;101478.03;;;10.68;65.00
50650;BME280;36621;60.058;30.346;2023-09-19T00:09:56;101444.22;;;10.47;65.27
50650;BME280;36621;60.058;30.346;2023-09-19T00:17:29;101456.78;;;10.48;66.38
50650;BME280;36621;60.058;30.346;2023-09-19T00:25:03;101441.16;;;10.43;66.04
50650;BME280;36621;60.058;30.346;2023-09-19T00:32:38;101426.69;;;10.43;65.46
50650;BME280;36621;60.058;30.346;2023-09-19T00:40:10;101410.09;;;10.28;66.03
50650;BME280;36621;60.058;30.346;2023-09-19T00:47:46;101431.00;;;10.39;65.70
50650;BME280;36621;60.058;30.346;2023-09-19T00:55:20;101433.50;;;10.23;66.00
50650;BME280;36621;60.058;30.346;2023-09-19T01:02:54;101411.69;;;10.23;66.03
50650;BME280;36621;60.058;30.346;2023-09-19T01:10:27;101357.72;;;9.86;65.50
50650;BME280;36621;60.058;30.346;2023-09-19T01:18:11;101385.97;;;10.19;65.79
50650;BME280;36621;60.058;30.346;2023-09-19T01:26:17;101378.41;;;10.26;65.42
50650;BME280;36621;60.058;30.346;2023-09-19T01:33:59;101368.34;;;10.05;65.63
50650;BME280;36621;60.058;30.346;2023-09-19T01:49:35;101303.06;;;9.76;66.35
50650;BME280;36621;60.058;30.346;2023-09-19T01:57:16;101319.38;;;9.93;65.73
50650;BME280;36621;60.058;30.346;2023-09-19T02:04:50;101301.47;;;9.80;66.22
50650;BME280;36621;60.058;30.346;2023-09-19T02:12:22;101266.94;;;9.64;65.92
50650;BME280;36621;60.058;30.346;2023-09-19T02:19:55;101246.88;;;9.53;66.30
50650;BME280;36621;60.058;30.346;2023-09-19T02:27:28;101269.13;;;9.67;65.88
50650;BME280;36621;60.058;30.346;2023-09-19T02:35:00;101246.56;;;9.71;66.01
50650;BME280;36621;60.058;30.346;2023-09-19T02:42:35;101202.88;;;9.44;66.42
50650;BME280;36621;60.058;30.346;2023-09-19T02:50:09;101216.13;;;9.57;66.24
50650;BME280;36621;60.058;30.346;2023-09-19T02:57:45;101214.53;;;9.62;66.22
50650;BME280;36621;60.058;30.346;2023-09-19T03:05:18;101201.28;;;9.70;66.23
50650;BME280;36621;60.058;30.346;2023-09-19T03:12:50;101185.34;;;9.84;65.44
50650;BME280;36621;60.058;30.346;2023-09-19T03:20:25;101181.06;;;9.94;65.15
50650;BME280;36621;60.058;30.346;2023-09-19T03:27:59;101178.59;;;9.92;65.32
50650;BME280;36621;60.058;30.346;2023-09-19T03:35:32;101106.44;;;9.72;65.03
50650;BME280;36621;60.058;30.346;2023-09-19T03:43:05;101099.22;;;9.88;65.51
50650;BME280;36621;60.058;30.346;2023-09-19T03:50:38;101108.69;;;10.13;64.85
50650;BME280;36621;60.058;30.346;2023-09-19T03:58:13;101092.25;;;10.03;65.16
50650;BME280;36621;60.058;30.346;2023-09-19T04:05:46;101064.78;;;10.15;64.42
50650;BME280;36621;60.058;30.346;2023-09-19T04:13:21;101060.81;;;10.33;64.53
50650;BME280;36621;60.058;30.346;2023-09-19T04:20:54;101052.16;;;10.41;64.17
50650;BME280;36621;60.058;30.346;2023-09-19T04:28:27;101034.81;;;10.20;64.44
50650;BME280;36621;60.058;30.346;2023-09-19T04:36:00;100997.25;;;9.95;64.91
50650;BME280;36621;60.058;30.346;2023-09-19T04:43:32;100999.50;;;10.03;65.25
50650;BME280;36621;60.058;30.346;2023-09-19T04:51:05;100987.50;;;10.47;64.58
50650;BME280;36621;60.058;30.346;2023-09-19T04:58:38;100975.31;;;10.65;63.08
50650;BME280;36621;60.058;30.346;2023-09-19T05:06:12;100961.13;;;10.78;63.24
50650;BME280;36621;60.058;30.346;2023-09-19T05:13:44;100950.00;;;11.00;62.96
50650;BME280;36621;60.058;30.346;2023-09-19T05:21:17;100927.34;;;11.15;62.43
50650;BME280;36621;60.058;30.346;2023-09-19T05:28:50;100797.25;;;10.73;61.46
50650;BME280;36621;60.058;30.346;2023-09-19T05:36:23;100898.34;;;11.76;61.18
50650;BME280;36621;60.058;30.346;2023-09-19T05:43:55;100884.06;;;11.99;60.24
50650;BME280;36621;60.058;30.346;2023-09-19T05:51:28;100858.38;;;11.90;60.20
50650;BME280;36621;60.058;30.346;2023-09-19T05:59:00;100863.75;;;12.26;59.96
50650;BME280;36621;60.058;30.346;2023-09-19T06:06:33;100864.22;;;12.39;59.58
50650;BME280;36621;60.058;30.346;2023-09-19T06:14:08;100844.19;;;12.43;60.53
50650;BME280;36621;60.058;30.346;2023-09-19T16:28:12;99971.03;;;19.85;63.65
50650;BME280;36621;60.058;30.346;2023-09-19T16:35:45;99938.69;;;19.61;63.43
50650;BME280;36621;60.058;30.346;2023-09-19T16:43:25;99953.28;;;19.86;63.00
50650;BME280;36621;60.058;30.346;2023-09-19T16:51:01;99964.78;;;19.88;62.20
50650;BME280;36621;60.058;30.346;2023-09-19T16:58:35;99936.47;;;19.67;62.09
50650;BME280;36621;60.058;30.346;2023-09-19T17:06:08;99878.50;;;19.30;62.24
50650;BME280;36621;60.058;30.346;2023-09-19T17:13:43;99927.03;;;19.68;61.80
50650;BME280;36621;60.058;30.346;2023-09-19T17:29:19;99914.16;;;19.75;59.93
50650;BME280;36621;60.058;30.346;2023-09-19T17:37:47;99845.31;;;19.30;59.10
50650;BME280;36621;60.058;30.346;2023-09-19T18:04:57;99870.22;;;19.74;57.22
50650;BME280;36621;60.058;30.346;2023-09-19T18:12:38;99826.31;;;19.44;57.02
50650;BME280;36621;60.058;30.346;2023-09-19T18:20:20;99823.25;;;19.61;56.07
50650;BME280;36621;60.058;30.346;2023-09-19T18:27:54;99849.78;;;19.94;56.52
50650;BME280;36621;60.058;30.346;2023-09-19T18:35:27;99811.09;;;19.66;55.83
50650;BME280;36621;60.058;30.346;2023-09-19T18:43:01;99859.91;;;20.03;55.47
50650;BME280;36621;60.058;30.346;2023-09-19T18:50:50;99759.72;;;19.53;55.68
50650;BME280;36621;60.058;30.346;2023-09-19T18:58:27;99789.50;;;19.88;55.60
50650;BME280;36621;60.058;30.346;2023-09-19T19:06:08;99771.06;;;19.95;55.62
50650;BME280;36621;60.058;30.346;2023-09-19T19:13:42;99801.47;;;20.08;55.93
50650;BME280;36621;60.058;30.346;2023-09-19T19:21:19;99751.00;;;19.83;56.10
50650;BME280;36621;60.058;30.346;2023-09-19T19:28:51;99756.63;;;19.86;56.21
50650;BME280;36621;60.058;30.346;2023-09-19T19:36:25;99769.28;;;20.03;56.64
50650;BME280;36621;60.058;30.346;2023-09-19T19:43:59;99730.53;;;19.87;56.83
50650;BME280;36621;60.058;30.346;2023-09-19T19:51:34;99730.09;;;19.85;57.45
50650;BME280;36621;60.058;30.346;2023-09-19T19:59:07;99759.59;;;20.13;58.88
50650;BME280;36621;60.058;30.346;2023-09-19T20:06:41;99747.09;;;20.03;58.98
50650;BME280;36621;60.058;30.346;2023-09-19T20:14:18;99784.31;;;20.02;59.25
50650;BME280;36621;60.058;30.346;2023-09-19T20:21:54;99775.44;;;20.12;58.85
50650;BME280;36621;60.058;30.346;2023-09-19T20:29:33;99707.03;;;19.65;59.55
50650;BME280;36621;60.058;30.346;2023-09-19T20:37:08;99783.56;;;20.21;59.36
50650;BME280;36621;60.058;30.346;2023-09-19T20:44:46;99777.13;;;20.17;60.02
50650;BME280;36621;60.058;30.346;2023-09-19T20:52:44;99800.44;;;20.16;60.66
50650;BME280;36621;60.058;30.346;2023-09-19T21:00:19;99837.31;;;19.85;63.79
50650;BME280;36621;60.058;30.346;2023-09-19T21:07:53;99794.00;;;19.32;65.65
50650;BME280;36621;60.058;30.346;2023-09-19T21:15:26;99823.28;;;19.33;66.51
50650;BME280;36621;60.058;30.346;2023-09-19T21:23:00;99795.13;;;19.15;66.80
50650;BME280;36621;60.058;30.346;2023-09-19T21:30:37;99784.69;;;19.08;67.52
50650;BME280;36621;60.058;30.346;2023-09-19T21:38:10;99829.41;;;19.26;67.55
50650;BME280;36621;60.058;30.346;2023-09-19T21:45:43;99819.56;;;19.13;67.61
50650;BME280;36621;60.058;30.346;2023-09-19T21:53:16;99851.00;;;19.21;68.00
50650;BME280;36621;60.058;30.346;2023-09-19T22:00:48;99856.44;;;19.17;68.01
50650;BME280;36621;60.058;30.346;2023-09-19T22:08:22;99852.13;;;19.04;67.99
50650;BME280;36621;60.058;30.346;2023-09-19T22:15:55;99862.72;;;19.02;68.92
50650;BME280;36621;60.058;30.346;2023-09-19T22:23:28;99822.22;;;18.69;68.70
50650;BME280;36621;60.058;30.346;2023-09-19T22:31:04;99877.06;;;18.79;69.27
50650;BME280;36621;60.058;30.346;2023-09-19T22:38:40;99867.84;;;18.63;69.67
50650;BME280;36621;60.058;30.346;2023-09-19T22:46:14;99877.78;;;18.64;70.13
50650;BME280;36621;60.058;30.346;2023-09-19T22:53:49;99857.97;;;18.49;69.96
50650;BME280;36621;60.058;30.346;2023-09-19T23:01:28;99879.97;;;18.58;70.00
50650;BME280;36621;60.058;30.346;2023-09-19T23:09:08;99892.63;;;18.47;70.13
50650;BME280;36621;60.058;30.346;2023-09-19T23:16:40;99919.59;;;18.50;68.44
50650;BME280;36621;60.058;30.346;2023-09-19T23:24:19;99917.84;;;18.20;67.95
50650;BME280;36621;60.058;30.346;2023-09-19T23:31:53;99909.75;;;17.91;66.02
50650;BME280;36621;60.058;30.346;2023-09-19T23:39:25;99920.50;;;17.71;64.59
50650;BME280;36621;60.058;30.346;2023-09-19T23:46:57;99907.53;;;17.50;64.36
50650;BME280;36621;60.058;30.346;2023-09-19T23:54:30;99932.59;;;17.45;65.09
